createdAt,value
2022-07-26T00:00:33.295Z,20.85
2022-07-26T00:01:33.411Z,20.81
2022-07-26T00:02:33.500Z,20.83
2022-07-26T00:03:33.381Z,20.79
2022-07-26T00:04:33.414Z,20.91
2022-07-26T00:05:34.064Z,20.93
2022-07-26T00:06:33.487Z,20.94
2022-07-26T00:08:33.541Z,20.94
2022-07-26T00:09:33.561Z,20.86
2022-07-26T00:10:33.591Z,20.79
2022-07-26T00:11:33.629Z,20.78
2022-07-26T00:12:33.651Z,20.85
2022-07-26T00:13:33.682Z,20.78
2022-07-26T00:14:33.725Z,20.76
2022-07-26T00:15:33.742Z,20.79
2022-07-26T00:16:36.732Z,20.75
2022-07-26T00:17:33.815Z,20.74
2022-07-26T00:18:33.845Z,20.75
2022-07-26T00:19:33.863Z,20.72
2022-07-26T00:20:33.891Z,20.71
2022-07-26T00:21:33.921Z,20.74
2022-07-26T00:22:33.951Z,20.71
2022-07-26T00:23:33.983Z,20.72
2022-07-26T00:24:35.601Z,20.75
2022-07-26T00:25:34.041Z,20.75
2022-07-26T00:26:34.070Z,20.71
2022-07-26T00:27:34.101Z,20.75
2022-07-26T00:28:34.130Z,20.72
2022-07-26T00:29:34.160Z,20.76
2022-07-26T00:30:34.189Z,20.74
2022-07-26T00:31:34.391Z,20.67
2022-07-26T00:32:34.251Z,20.66
2022-07-26T00:33:34.297Z,20.64
2022-07-26T00:34:34.319Z,20.71
2022-07-26T00:35:34.340Z,20.72
2022-07-26T00:36:34.380Z,20.68
2022-07-26T00:37:34.720Z,20.58
2022-07-26T00:38:34.432Z,20.64
2022-07-26T00:39:34.460Z,20.49
2022-07-26T00:40:34.500Z,20.44
2022-07-26T00:42:34.565Z,20.44
2022-07-26T00:44:34.618Z,20.44
2022-07-26T00:46:34.706Z,20.38
2022-07-26T00:48:34.785Z,20.27
2022-07-26T00:49:34.777Z,20.25
2022-07-26T00:50:34.785Z,20.26
2022-07-26T00:51:34.817Z,20.26
2022-07-26T00:52:34.846Z,20.26
2022-07-26T00:54:34.906Z,20.30
2022-07-26T00:55:34.933Z,20.07
2022-07-26T00:56:35.991Z,20.07
2022-07-26T00:57:35.003Z,20.12
2022-07-26T00:58:35.038Z,20.07
2022-07-26T00:59:35.061Z,20.01
2022-07-26T01:00:35.086Z,20.02
2022-07-26T01:01:35.314Z,19.95
2022-07-26T01:02:35.232Z,19.89
2022-07-26T01:03:39.376Z,19.97
2022-07-26T01:04:35.215Z,19.86
2022-07-26T01:05:35.245Z,19.83
2022-07-26T01:06:35.278Z,19.83
2022-07-26T01:08:35.544Z,19.71
2022-07-26T01:09:35.360Z,19.70
2022-07-26T01:10:35.594Z,19.64
2022-07-26T01:18:35.613Z,19.72
2022-07-26T01:19:35.642Z,19.65
2022-07-26T01:20:35.678Z,19.78
2022-07-26T01:21:35.699Z,19.57
2022-07-26T01:22:35.730Z,19.61
2022-07-26T01:23:35.760Z,19.57
2022-07-26T01:24:35.805Z,19.67
2022-07-26T01:25:42.343Z,19.56
2022-07-26T01:26:35.848Z,19.63
2022-07-26T01:27:35.878Z,19.63
2022-07-26T01:30:16.057Z,19.63
2022-07-26T01:31:16.185Z,19.56
2022-07-26T01:32:16.103Z,19.70
2022-07-26T01:34:16.385Z,19.67
2022-07-26T01:35:16.208Z,19.52
2022-07-26T01:36:16.247Z,19.55
2022-07-26T01:37:16.464Z,19.60
2022-07-26T01:38:16.609Z,19.47
2022-07-26T01:39:16.319Z,19.52
2022-07-26T01:41:16.586Z,19.57
2022-07-26T01:42:16.410Z,19.49
2022-07-26T01:44:16.672Z,19.46
2022-07-26T01:45:16.701Z,19.50
2022-07-26T01:46:17.582Z,19.35
2022-07-26T01:47:16.553Z,19.43
2022-07-26T01:48:16.573Z,19.43
2022-07-26T01:49:16.668Z,19.32
2022-07-26T01:50:16.632Z,19.47
2022-07-26T01:51:16.662Z,19.42
2022-07-26T01:52:16.689Z,19.37
2022-07-26T01:53:16.717Z,19.45
2022-07-26T01:54:22.422Z,19.37
2022-07-26T01:55:16.977Z,19.35
2022-07-26T01:56:17.025Z,19.35
2022-07-26T01:58:17.181Z,19.24
2022-07-26T01:59:17.110Z,19.20
2022-07-26T02:00:17.443Z,19.20
2022-07-26T02:01:17.240Z,19.25
2022-07-26T02:03:59.563Z,19.28
2022-07-26T02:04:59.591Z,19.28
2022-07-26T02:05:59.619Z,19.23
2022-07-26T02:06:59.667Z,19.16
2022-07-26T02:07:59.943Z,19.23
2022-07-26T02:15:00.113Z,19.06
2022-07-26T02:22:00.089Z,19.27
2022-07-26T02:23:00.121Z,19.27
2022-07-26T02:24:00.154Z,19.32
2022-07-26T02:25:04.979Z,19.42
2022-07-26T02:31:00.960Z,19.42
2022-07-26T02:32:01.096Z,19.46
2022-07-26T02:33:00.417Z,19.53
2022-07-26T02:34:00.443Z,19.49
2022-07-26T02:36:00.503Z,19.57
2022-07-26T02:37:00.734Z,19.46
2022-07-26T02:39:00.592Z,19.53
2022-07-26T02:41:01.361Z,19.46
2022-07-26T02:42:00.990Z,19.38
2022-07-26T02:43:01.219Z,19.46
2022-07-26T02:44:01.145Z,19.49
2022-07-26T02:45:00.768Z,19.50
2022-07-26T02:46:02.226Z,19.49
2022-07-26T02:47:01.233Z,19.50
2022-07-26T02:48:01.571Z,19.47
2022-07-26T02:49:01.303Z,19.49
2022-07-26T02:52:00.974Z,19.50
2022-07-26T02:53:02.121Z,19.57
2022-07-26T02:54:01.238Z,19.60
2022-07-26T02:55:01.268Z,19.57
2022-07-26T02:56:01.094Z,19.64
2022-07-26T02:58:01.157Z,19.53
2022-07-26T02:59:01.182Z,19.49
2022-07-26T03:00:01.414Z,19.50
2022-07-26T03:01:01.443Z,19.46
2022-07-26T03:02:01.307Z,19.53
2022-07-26T03:03:01.467Z,19.50
2022-07-26T03:06:01.387Z,19.47
2022-07-26T03:08:01.444Z,19.49
2022-07-26T03:09:01.675Z,19.53
2022-07-26T03:11:03.152Z,19.49
2022-07-26T03:13:01.995Z,19.47
2022-07-26T03:22:02.469Z,19.25
2022-07-26T03:26:01.973Z,19.15
2022-07-26T03:28:02.438Z,19.16
2022-07-26T03:31:03.339Z,19.12
2022-07-26T03:35:02.536Z,19.20
2022-07-26T03:42:02.444Z,19.31
2022-07-26T03:44:02.503Z,19.35
2022-07-26T03:45:03.229Z,19.30
2022-07-26T03:48:03.535Z,19.37
2022-07-26T03:52:03.654Z,19.38
2022-07-26T03:55:03.026Z,19.38
2022-07-26T03:59:03.450Z,19.42
2022-07-26T04:02:03.452Z,19.52
2022-07-26T04:03:03.119Z,19.46
2022-07-26T04:07:03.872Z,19.52
2022-07-26T04:10:04.369Z,19.49
2022-07-26T04:22:04.338Z,19.50
2022-07-26T04:34:04.062Z,19.64
2022-07-26T04:35:03.994Z,19.68
2022-07-26T04:36:04.020Z,19.61
2022-07-26T04:37:04.050Z,19.52
2022-07-26T04:38:04.087Z,19.56
2022-07-26T04:39:04.109Z,19.63
2022-07-26T04:40:04.137Z,19.65
2022-07-26T04:41:04.170Z,19.67
2022-07-26T04:42:04.206Z,19.53
2022-07-26T04:43:04.230Z,19.65
2022-07-26T04:44:04.267Z,19.56
2022-07-26T04:45:08.126Z,19.67
2022-07-26T04:46:04.397Z,19.56
2022-07-26T04:47:04.345Z,19.64
2022-07-26T04:48:04.374Z,19.64
2022-07-26T04:49:04.439Z,19.67
2022-07-26T04:50:04.448Z,19.64
2022-07-26T04:51:04.467Z,19.68
2022-07-26T04:52:04.492Z,19.65
2022-07-26T04:53:04.521Z,19.65
2022-07-26T04:54:04.632Z,19.56
2022-07-26T04:55:04.581Z,19.61
2022-07-26T04:56:04.610Z,19.67
2022-07-26T04:57:04.641Z,19.70
2022-07-26T04:59:06.327Z,19.71
2022-07-26T05:01:10.403Z,19.72
2022-07-26T05:03:05.071Z,19.71
2022-07-26T05:04:06.177Z,19.82
2022-07-26T05:05:04.894Z,19.85
2022-07-26T05:09:05.008Z,19.83
2022-07-26T05:33:18.947Z,20.04
2022-07-26T05:46:09.697Z,20.08
2022-07-26T05:47:06.136Z,19.86
2022-07-26T05:50:06.218Z,19.92
2022-07-26T05:52:06.278Z,20.05
2022-07-26T05:53:07.322Z,20.04
2022-07-26T05:55:06.370Z,19.86
2022-07-26T06:00:06.724Z,19.95
2022-07-26T06:03:08.024Z,20.01
2022-07-26T06:10:07.714Z,20.10
2022-07-26T06:13:08.114Z,20.16
2022-07-26T06:16:07.802Z,20.18
2022-07-26T06:19:08.189Z,20.16
2022-07-26T06:22:09.095Z,20.30
2022-07-26T06:30:07.620Z,20.32
2022-07-26T06:34:10.017Z,20.30
2022-07-26T06:37:07.928Z,20.27
2022-07-26T06:39:07.877Z,20.16
2022-07-26T06:45:08.149Z,20.16
2022-07-26T06:51:08.030Z,20.27
2022-07-26T06:53:08.295Z,20.29
2022-07-26T06:57:08.819Z,20.37
2022-07-26T06:59:09.567Z,20.38
2022-07-26T07:00:08.298Z,20.32
2022-07-26T07:01:08.604Z,20.37
2022-07-26T07:02:08.458Z,20.30
2022-07-26T07:03:08.797Z,20.35
2022-07-26T07:04:08.886Z,20.30
2022-07-26T07:05:09.392Z,20.37
2022-07-26T07:06:08.686Z,20.37
2022-07-26T07:07:12.257Z,20.38
2022-07-26T07:08:09.146Z,20.32
2022-07-26T07:11:08.615Z,20.42
2022-07-26T07:12:10.273Z,20.41
2022-07-26T07:13:08.676Z,20.42
2022-07-26T07:14:09.207Z,20.41
2022-07-26T07:15:08.750Z,20.42
2022-07-26T07:16:08.834Z,20.38
2022-07-26T07:17:12.904Z,20.54
2022-07-26T07:18:08.835Z,20.60
2022-07-26T07:19:09.074Z,20.58
2022-07-26T07:20:08.898Z,20.67
2022-07-26T07:21:08.923Z,20.66
2022-07-26T07:22:09.361Z,20.68
2022-07-26T07:23:09.296Z,20.66
2022-07-26T07:24:12.637Z,20.63
2022-07-26T07:25:09.655Z,20.56
2022-07-26T07:26:09.063Z,20.56
2022-07-26T07:27:09.095Z,20.53
2022-07-26T07:28:09.122Z,20.58
2022-07-26T07:29:09.152Z,20.63
2022-07-26T07:30:09.181Z,20.71
2022-07-26T07:31:09.269Z,20.76
2022-07-26T07:32:18.346Z,20.74
2022-07-26T07:33:09.285Z,20.76
2022-07-26T07:34:09.656Z,20.86
2022-07-26T07:35:12.665Z,20.90
2022-07-26T07:36:09.370Z,20.98
2022-07-26T07:37:09.406Z,21.00
2022-07-26T07:38:09.421Z,21.06
2022-07-26T07:39:15.364Z,20.97
2022-07-26T07:40:09.480Z,20.91
2022-07-26T07:41:09.511Z,20.90
2022-07-26T07:42:09.542Z,20.85
2022-07-26T07:43:09.574Z,20.90
2022-07-26T07:44:09.922Z,20.94
2022-07-26T07:45:09.632Z,21.06
2022-07-26T07:46:09.664Z,21.01
2022-07-26T07:47:09.737Z,20.98
2022-07-26T07:48:09.720Z,20.94
2022-07-26T07:49:10.146Z,20.94
2022-07-26T07:50:09.785Z,20.98
2022-07-26T07:51:09.813Z,21.13
2022-07-26T07:52:09.844Z,21.12
2022-07-26T07:53:09.886Z,21.16
2022-07-26T07:54:09.903Z,21.21
2022-07-26T07:55:41.543Z,21.28
2022-07-26T07:56:09.964Z,21.30
2022-07-26T07:57:09.994Z,21.25
2022-07-26T07:58:10.030Z,21.33
2022-07-26T07:59:10.561Z,21.45
2022-07-26T08:00:10.085Z,21.49
2022-07-26T08:01:10.199Z,21.49
2022-07-26T08:02:10.144Z,21.61
2022-07-26T08:03:10.174Z,21.67
2022-07-26T08:04:10.488Z,21.90
2022-07-26T08:05:14.144Z,21.99
2022-07-26T08:06:10.264Z,22.18
2022-07-26T08:07:10.309Z,22.36
2022-07-26T08:08:10.324Z,22.41
2022-07-26T08:09:13.148Z,22.61
2022-07-26T08:10:10.385Z,22.42
2022-07-26T08:11:10.416Z,22.30
2022-07-26T08:12:10.444Z,22.16
2022-07-26T08:13:10.477Z,22.20
2022-07-26T08:14:10.512Z,22.08
2022-07-26T08:15:10.537Z,22.11
2022-07-26T08:16:10.603Z,22.15
2022-07-26T08:17:10.598Z,22.27
2022-07-26T08:18:10.629Z,22.31
2022-07-26T08:19:10.941Z,22.36
2022-07-26T08:20:13.769Z,22.33
2022-07-26T08:21:10.721Z,22.46
2022-07-26T08:22:10.769Z,22.29
2022-07-26T08:23:10.782Z,22.07
2022-07-26T08:24:10.816Z,22.05
2022-07-26T08:25:10.843Z,21.96
2022-07-26T08:26:10.877Z,21.99
2022-07-26T08:27:10.904Z,21.83
2022-07-26T08:28:24.938Z,21.93
2022-07-26T08:29:11.311Z,21.86
2022-07-26T08:30:10.999Z,21.64
2022-07-26T08:31:11.097Z,21.71
2022-07-26T08:32:11.063Z,21.67
2022-07-26T08:33:11.093Z,21.64
2022-07-26T08:34:11.123Z,21.62
2022-07-26T08:35:17.671Z,21.53
2022-07-26T08:36:11.183Z,21.52
2022-07-26T08:37:18.666Z,21.52
2022-07-26T08:38:11.246Z,21.46
2022-07-26T08:39:11.409Z,21.51
2022-07-26T08:40:11.313Z,21.53
2022-07-26T08:41:11.335Z,21.59
2022-07-26T08:42:11.368Z,21.61
2022-07-26T08:43:11.396Z,21.82
2022-07-26T08:44:11.429Z,21.85
2022-07-26T08:45:11.456Z,21.90
2022-07-26T08:46:11.714Z,21.97
2022-07-26T08:47:11.545Z,22.23
2022-07-26T08:48:18.998Z,22.31
2022-07-26T08:49:12.496Z,22.69
2022-07-26T08:50:11.612Z,22.85
2022-07-26T08:51:11.641Z,23.26
2022-07-26T08:52:11.677Z,23.41
2022-07-26T08:53:11.704Z,23.41
2022-07-26T08:54:11.736Z,23.47
2022-07-26T08:55:11.765Z,23.40
2022-07-26T08:56:11.799Z,23.48
2022-07-26T08:57:11.829Z,23.78
2022-07-26T08:58:11.862Z,23.71
2022-07-26T08:59:17.161Z,23.77
2022-07-26T09:00:11.922Z,23.81
2022-07-26T09:01:12.003Z,23.81
2022-07-26T09:02:11.987Z,23.79
2022-07-26T09:03:12.014Z,23.87
2022-07-26T09:04:13.778Z,23.82
2022-07-26T09:05:12.078Z,23.75
2022-07-26T09:06:12.111Z,23.64
2022-07-26T09:07:12.143Z,23.42
2022-07-26T09:08:12.176Z,23.37
2022-07-26T09:09:12.205Z,23.25
2022-07-26T09:10:12.238Z,23.00
2022-07-26T09:11:12.267Z,22.89
2022-07-26T09:12:12.302Z,22.81
2022-07-26T09:13:12.335Z,22.79
2022-07-26T09:14:12.364Z,22.73
2022-07-26T09:15:12.394Z,22.91
2022-07-26T09:16:12.563Z,23.00
2022-07-26T09:17:12.458Z,23.34
2022-07-26T09:18:12.492Z,24.40
2022-07-26T09:19:12.522Z,25.32
2022-07-26T09:20:12.558Z,25.75
2022-07-26T09:21:12.586Z,25.64
2022-07-26T09:22:12.619Z,26.17
2022-07-26T09:23:12.650Z,26.61
2022-07-26T09:24:12.695Z,26.96
2022-07-26T09:25:15.944Z,27.43
2022-07-26T09:26:12.749Z,27.96
2022-07-26T09:27:12.780Z,28.36
2022-07-26T09:28:12.813Z,28.83
2022-07-26T09:29:13.748Z,29.18
2022-07-26T09:30:12.883Z,29.11
2022-07-26T09:31:12.991Z,29.15
2022-07-26T09:32:12.946Z,29.39
2022-07-26T09:33:12.979Z,28.83
2022-07-26T09:34:13.388Z,28.65
2022-07-26T09:35:45.376Z,28.78
2022-07-26T09:36:13.080Z,29.05
2022-07-26T09:38:48.244Z,29.35
2022-07-26T09:39:48.283Z,28.92
2022-07-26T09:40:51.553Z,28.46
2022-07-26T09:42:04.792Z,27.98
2022-07-26T09:42:48.386Z,27.34
2022-07-26T09:43:53.477Z,26.68
2022-07-26T09:44:48.457Z,26.17
2022-07-26T09:45:48.493Z,25.76
2022-07-26T09:46:48.563Z,25.24
2022-07-26T09:47:48.566Z,25.11
2022-07-26T09:49:48.701Z,24.89
2022-07-26T09:50:48.709Z,24.92
2022-07-26T09:51:48.702Z,24.86
2022-07-26T09:52:48.735Z,24.78
2022-07-26T09:53:48.773Z,24.74
2022-07-26T09:54:48.805Z,24.69
2022-07-26T09:55:48.839Z,24.52
2022-07-26T09:56:48.872Z,24.58
2022-07-26T09:57:48.907Z,24.36
2022-07-26T09:58:48.939Z,24.03
2022-07-26T09:59:48.976Z,23.89
2022-07-26T10:00:49.009Z,23.87
2022-07-26T10:01:49.127Z,24.03
2022-07-26T10:02:49.112Z,24.40
2022-07-26T10:03:49.109Z,25.24
2022-07-26T10:04:49.141Z,25.48
2022-07-26T10:05:49.176Z,25.66
2022-07-26T10:06:49.206Z,26.44
2022-07-26T10:07:49.244Z,26.86
2022-07-26T10:09:49.311Z,26.61
2022-07-26T10:10:49.345Z,25.69
2022-07-26T10:11:49.377Z,25.29
2022-07-26T10:12:49.411Z,25.08
2022-07-26T10:13:49.442Z,24.70
2022-07-26T10:14:49.474Z,24.48
2022-07-26T10:15:49.562Z,24.19
2022-07-26T10:16:49.542Z,23.85
2022-07-26T10:17:49.690Z,23.72
2022-07-26T10:18:49.607Z,23.74
2022-07-26T10:19:49.639Z,23.75
2022-07-26T10:20:49.675Z,23.79
2022-07-26T10:21:49.705Z,23.84
2022-07-26T10:22:49.737Z,24.21
2022-07-26T10:23:49.769Z,24.34
2022-07-26T10:24:53.070Z,25.07
2022-07-26T10:25:49.836Z,25.48
2022-07-26T10:26:49.870Z,25.78
2022-07-26T10:27:49.904Z,26.44
2022-07-26T10:28:49.934Z,26.44
2022-07-26T10:29:49.968Z,25.94
2022-07-26T10:30:50.056Z,25.71
2022-07-26T10:31:50.094Z,25.48
2022-07-26T10:32:50.065Z,25.42
2022-07-26T10:33:50.299Z,26.24
2022-07-26T10:34:50.132Z,27.01
2022-07-26T10:35:50.161Z,27.43
2022-07-26T10:36:53.182Z,28.02
2022-07-26T10:37:50.230Z,27.43
2022-07-26T10:38:50.262Z,27.33
2022-07-26T10:39:50.294Z,26.87
2022-07-26T10:40:50.329Z,26.79
2022-07-26T10:41:50.363Z,26.44
2022-07-26T10:42:50.396Z,26.82
2022-07-26T10:43:50.426Z,27.18
2022-07-26T10:44:50.462Z,27.53
2022-07-26T10:45:50.494Z,27.84
2022-07-26T10:46:50.619Z,27.90
2022-07-26T10:47:50.559Z,28.11
2022-07-26T10:48:50.667Z,28.46
2022-07-26T10:49:50.627Z,28.76
2022-07-26T10:50:50.663Z,28.58
2022-07-26T10:51:50.697Z,28.75
2022-07-26T10:52:50.729Z,29.05
2022-07-26T10:53:50.762Z,29.17
2022-07-26T10:54:50.801Z,29.17
2022-07-26T10:55:50.829Z,29.47
2022-07-26T10:56:50.871Z,29.70
2022-07-26T10:57:50.950Z,29.55
2022-07-26T10:58:50.934Z,29.40
2022-07-26T10:59:56.089Z,29.69
2022-07-26T11:00:51.004Z,29.70
2022-07-26T11:01:51.091Z,29.72
2022-07-26T11:02:51.149Z,29.88
2022-07-26T11:03:51.105Z,29.81
2022-07-26T11:04:51.140Z,29.98
2022-07-26T11:05:51.174Z,30.14
2022-07-26T11:06:51.218Z,30.40
2022-07-26T11:07:51.245Z,30.18
2022-07-26T11:08:51.283Z,29.79
2022-07-26T11:09:51.314Z,29.94
2022-07-26T11:10:51.351Z,30.07
2022-07-26T11:11:51.486Z,29.87
2022-07-26T11:12:51.422Z,30.06
2022-07-26T11:13:51.476Z,30.21
2022-07-26T11:14:51.493Z,30.51
2022-07-26T11:15:51.617Z,30.86
2022-07-26T11:16:51.562Z,31.16
2022-07-26T11:17:51.597Z,31.04
2022-07-26T11:18:51.633Z,30.93
2022-07-26T11:19:51.666Z,31.00
2022-07-26T11:20:51.704Z,30.84
2022-07-26T11:21:51.741Z,30.77
2022-07-26T11:22:51.775Z,30.63
2022-07-26T11:23:51.813Z,30.63
2022-07-26T11:24:51.849Z,30.64
2022-07-26T11:25:51.882Z,30.69
2022-07-26T11:26:51.918Z,30.26
2022-07-26T11:27:51.954Z,29.92
2022-07-26T11:28:51.991Z,29.38
2022-07-26T11:29:52.024Z,28.85
2022-07-26T11:30:52.151Z,28.28
2022-07-26T11:31:58.159Z,27.83
2022-07-26T11:32:52.133Z,27.26
2022-07-26T11:33:52.173Z,26.86
2022-07-26T11:34:52.204Z,26.42
2022-07-26T11:35:52.237Z,25.91
2022-07-26T11:36:52.273Z,25.49
2022-07-26T11:37:52.306Z,25.37
2022-07-26T11:38:52.343Z,25.23
2022-07-26T11:39:52.376Z,25.15
2022-07-26T11:40:52.412Z,25.08
2022-07-26T11:41:52.458Z,25.08
2022-07-26T11:42:52.480Z,25.01
2022-07-26T11:43:52.521Z,25.09
2022-07-26T11:44:52.548Z,25.33
2022-07-26T11:45:52.619Z,25.52
2022-07-26T11:46:52.678Z,25.54
2022-07-26T11:48:35.214Z,25.60
2022-07-26T11:50:00.538Z,25.60
2022-07-26T11:50:35.270Z,25.52
2022-07-26T11:51:35.303Z,25.52
2022-07-26T11:52:35.346Z,25.37
2022-07-26T11:53:35.370Z,25.29
2022-07-26T11:54:35.403Z,25.29
2022-07-26T11:55:35.435Z,25.34
2022-07-26T11:56:35.476Z,25.41
2022-07-26T11:57:35.502Z,25.19
2022-07-26T11:58:35.532Z,24.96
2022-07-26T11:59:35.571Z,24.87
2022-07-26T12:00:38.220Z,24.80
2022-07-26T12:01:35.633Z,24.78
2022-07-26T12:02:35.661Z,24.49
2022-07-26T12:03:35.698Z,24.42
2022-07-26T12:04:35.873Z,24.24
2022-07-26T12:05:35.821Z,24.11
2022-07-26T12:06:35.789Z,24.18
2022-07-26T12:07:35.827Z,24.04
2022-07-26T12:08:35.853Z,23.96
2022-07-26T12:09:36.499Z,23.87
2022-07-26T12:10:35.917Z,23.78
2022-07-26T12:11:35.953Z,23.64
2022-07-26T12:12:35.981Z,23.71
2022-07-26T12:13:39.805Z,23.60
2022-07-26T12:14:36.045Z,23.55
2022-07-26T12:15:36.143Z,23.72
2022-07-26T12:16:36.109Z,23.63
2022-07-26T12:17:36.145Z,23.56
2022-07-26T12:18:36.172Z,23.62
2022-07-26T12:19:36.206Z,23.57
2022-07-26T12:20:36.234Z,23.72
2022-07-26T12:21:36.267Z,23.60
2022-07-26T12:22:36.298Z,23.63
2022-07-26T12:23:36.331Z,23.66
2022-07-26T12:24:36.360Z,23.66
2022-07-26T12:25:36.393Z,23.64
2022-07-26T12:26:36.422Z,23.74
2022-07-26T12:27:36.456Z,23.71
2022-07-26T12:28:36.487Z,23.71
2022-07-26T12:29:36.523Z,23.72
2022-07-26T12:30:36.592Z,23.63
2022-07-26T12:31:36.666Z,23.71
2022-07-26T12:32:36.611Z,23.62
2022-07-26T12:33:36.643Z,23.63
2022-07-26T12:34:36.681Z,23.66
2022-07-26T12:35:36.707Z,23.64
2022-07-26T12:36:36.737Z,23.85
2022-07-26T12:37:40.627Z,23.99
2022-07-26T12:38:36.799Z,24.03
2022-07-26T12:39:36.833Z,24.07
2022-07-26T12:40:36.863Z,24.12
2022-07-26T12:41:36.971Z,24.18
2022-07-26T12:42:36.923Z,24.11
2022-07-26T12:43:36.958Z,24.07
2022-07-26T12:44:37.388Z,24.02
2022-07-26T12:45:37.018Z,24.07
2022-07-26T12:46:37.246Z,24.00
2022-07-26T12:47:37.080Z,24.02
2022-07-26T12:48:37.216Z,24.04
2022-07-26T12:49:37.143Z,24.09
2022-07-26T12:50:37.174Z,24.04
2022-07-26T12:51:37.206Z,24.22
2022-07-26T12:52:37.238Z,24.34
2022-07-26T12:53:37.269Z,24.58
2022-07-26T12:54:37.308Z,24.67
2022-07-26T12:55:37.331Z,24.80
2022-07-26T12:56:37.363Z,24.92
2022-07-26T12:57:37.393Z,25.11
2022-07-26T12:58:37.425Z,25.30
2022-07-26T12:59:42.286Z,25.22
2022-07-26T13:00:37.488Z,25.37
2022-07-26T13:01:37.579Z,25.54
2022-07-26T13:02:37.553Z,25.63
2022-07-26T13:03:37.584Z,25.81
2022-07-26T13:04:37.681Z,25.69
2022-07-26T13:05:37.649Z,25.66
2022-07-26T13:06:37.679Z,25.81
2022-07-26T13:07:37.743Z,25.85
2022-07-26T13:08:37.765Z,25.94
2022-07-26T13:09:37.777Z,26.03
2022-07-26T13:10:37.953Z,26.09
2022-07-26T13:11:37.841Z,26.24
2022-07-26T13:12:37.872Z,26.09
2022-07-26T13:13:37.904Z,25.97
2022-07-26T13:14:37.937Z,25.74
2022-07-26T13:15:38.190Z,25.49
2022-07-26T13:16:38.034Z,25.09
2022-07-26T13:17:38.034Z,25.14
2022-07-26T13:18:38.079Z,25.01
2022-07-26T13:19:38.096Z,24.77
2022-07-26T13:20:38.200Z,24.56
2022-07-26T13:21:38.163Z,24.67
2022-07-26T13:22:38.193Z,24.71
2022-07-26T13:23:38.228Z,24.74
2022-07-26T13:24:38.262Z,24.83
2022-07-26T13:25:40.321Z,24.89
2022-07-26T13:26:38.322Z,24.87
2022-07-26T13:27:44.332Z,24.83
2022-07-26T13:28:38.384Z,24.90
2022-07-26T13:29:38.417Z,24.96
2022-07-26T13:30:38.587Z,24.93
2022-07-26T13:31:38.482Z,25.09
2022-07-26T13:32:38.510Z,25.11
2022-07-26T13:33:38.545Z,25.29
2022-07-26T13:34:38.575Z,25.41
2022-07-26T13:35:38.609Z,25.47
2022-07-26T13:36:38.642Z,25.27
2022-07-26T13:37:38.689Z,25.22
2022-07-26T13:38:38.702Z,25.30
2022-07-26T13:39:38.735Z,25.48
2022-07-26T13:40:38.767Z,25.76
2022-07-26T13:41:38.800Z,25.86
2022-07-26T13:42:39.152Z,26.00
2022-07-26T13:43:38.870Z,25.57
2022-07-26T13:44:38.891Z,25.47
2022-07-26T13:45:39.018Z,25.49
2022-07-26T13:46:39.000Z,25.67
2022-07-26T13:47:38.989Z,25.63
2022-07-26T13:49:56.655Z,25.71
2022-07-26T13:50:56.698Z,25.91
2022-07-26T13:51:56.718Z,26.01
2022-07-26T13:52:57.022Z,26.01
2022-07-26T13:53:57.590Z,26.07
2022-07-26T13:54:56.818Z,26.22
2022-07-26T13:55:56.849Z,26.22
2022-07-26T13:56:56.884Z,26.27
2022-07-26T13:57:58.166Z,26.34
2022-07-26T13:58:56.949Z,25.97
2022-07-26T13:59:56.973Z,25.69
2022-07-26T14:00:57.077Z,25.51
2022-07-26T14:01:57.186Z,25.29
2022-07-26T14:02:57.210Z,25.29
2022-07-26T14:03:57.102Z,25.29
2022-07-26T14:04:57.138Z,25.23
2022-07-26T14:05:57.166Z,25.24
2022-07-26T14:06:57.199Z,25.34
2022-07-26T14:07:57.268Z,25.47
2022-07-26T14:08:57.265Z,25.57
2022-07-26T14:09:57.294Z,25.60
2022-07-26T14:10:57.328Z,25.64
2022-07-26T14:11:57.359Z,25.59
2022-07-26T14:12:57.393Z,25.56
2022-07-26T14:13:57.421Z,25.57
2022-07-26T14:14:57.455Z,25.44
2022-07-26T14:15:57.492Z,25.52
2022-07-26T14:16:57.594Z,25.49
2022-07-26T14:17:57.549Z,25.47
2022-07-26T14:18:57.583Z,25.47
2022-07-26T14:19:57.686Z,25.45
2022-07-26T14:20:57.649Z,25.45
2022-07-26T14:21:59.137Z,25.34
2022-07-26T14:22:57.711Z,25.37
2022-07-26T14:23:57.740Z,25.34
2022-07-26T14:24:57.775Z,25.30
2022-07-26T14:25:57.804Z,25.24
2022-07-26T14:26:59.436Z,25.27
2022-07-26T14:27:57.868Z,25.27
2022-07-26T14:28:57.902Z,25.34
2022-07-26T14:29:57.976Z,25.41
2022-07-26T14:30:57.965Z,25.30
2022-07-26T14:31:58.185Z,25.27
2022-07-26T14:32:58.029Z,25.39
2022-07-26T14:33:58.060Z,25.39
2022-07-26T14:34:58.095Z,25.49
2022-07-26T14:35:58.123Z,25.45
2022-07-26T14:36:58.157Z,25.42
2022-07-26T14:37:58.188Z,25.37
2022-07-26T14:38:58.222Z,25.32
2022-07-26T14:39:58.276Z,25.29
2022-07-26T14:40:58.285Z,25.22
2022-07-26T14:41:58.314Z,25.24
2022-07-26T14:42:58.349Z,25.23
2022-07-26T14:43:58.378Z,25.15
2022-07-26T14:44:58.414Z,25.27
2022-07-26T14:45:58.488Z,25.44
2022-07-26T14:46:58.478Z,25.30
2022-07-26T14:47:58.507Z,24.92
2022-07-26T14:48:58.648Z,24.78
2022-07-26T14:50:02.768Z,24.59
2022-07-26T14:51:09.064Z,24.40
2022-07-26T14:51:58.634Z,24.39
2022-07-26T14:52:58.669Z,24.26
2022-07-26T14:53:58.699Z,24.08
2022-07-26T14:54:58.731Z,24.12
2022-07-26T14:55:58.761Z,24.24
2022-07-26T14:56:58.795Z,24.27
2022-07-26T14:57:58.824Z,24.33
2022-07-26T14:58:58.858Z,24.40
2022-07-26T14:59:58.889Z,24.32
2022-07-26T15:00:58.958Z,24.36
2022-07-26T15:02:02.606Z,24.44
2022-07-26T15:02:58.985Z,24.32
2022-07-26T15:03:59.014Z,24.15
2022-07-26T15:04:59.049Z,24.17
2022-07-26T15:05:59.077Z,24.12
2022-07-26T15:06:59.110Z,24.09
2022-07-26T15:08:04.132Z,24.09
2022-07-26T15:08:59.176Z,24.19
2022-07-26T15:09:59.203Z,24.18
2022-07-26T15:10:59.236Z,24.11
2022-07-26T15:11:59.269Z,24.04
2022-07-26T15:12:59.300Z,24.04
2022-07-26T15:14:03.877Z,23.77
2022-07-26T15:14:59.363Z,23.75
2022-07-26T15:15:59.443Z,23.74
2022-07-26T15:16:59.477Z,23.71
2022-07-26T15:17:59.458Z,23.60
2022-07-26T15:18:59.487Z,23.63
2022-07-26T15:19:59.518Z,23.71
2022-07-26T15:20:59.552Z,23.70
2022-07-26T15:21:59.580Z,23.59
2022-07-26T15:22:59.616Z,23.59
2022-07-26T15:23:59.645Z,23.44
2022-07-26T15:24:59.681Z,23.25
2022-07-26T15:25:59.709Z,23.24
2022-07-26T15:26:59.740Z,23.21
2022-07-26T15:27:59.769Z,23.07
2022-07-26T15:28:59.801Z,22.99
2022-07-26T15:30:04.281Z,23.04
2022-07-26T15:30:59.861Z,22.97
2022-07-26T15:31:59.964Z,22.86
2022-07-26T15:32:59.925Z,22.85
2022-07-26T15:33:59.953Z,22.82
2022-07-26T15:34:59.987Z,22.66
2022-07-26T15:36:04.009Z,22.44
2022-07-26T15:37:00.058Z,22.24
2022-07-26T15:38:00.076Z,22.18
2022-07-26T15:39:15.590Z,22.16
2022-07-26T15:40:00.194Z,22.07
2022-07-26T15:41:00.170Z,22.08
2022-07-26T15:42:05.402Z,22.05
2022-07-26T15:43:00.231Z,22.08
2022-07-26T15:44:00.260Z,22.14
2022-07-26T15:45:00.294Z,22.07
2022-07-26T15:46:00.405Z,22.04
2022-07-26T15:47:00.352Z,22.08
2022-07-26T15:48:11.456Z,22.11
2022-07-26T15:49:00.521Z,22.24
2022-07-26T15:50:00.442Z,22.26
2022-07-26T15:51:00.473Z,22.31
2022-07-26T15:52:00.511Z,22.31
2022-07-26T15:53:00.534Z,22.46
2022-07-26T15:54:00.563Z,22.55
2022-07-26T15:55:00.600Z,22.57
2022-07-26T15:56:00.624Z,22.66
2022-07-26T15:57:00.656Z,22.73
2022-07-26T15:58:00.697Z,22.94
2022-07-26T15:59:00.718Z,22.96
2022-07-26T16:00:11.236Z,22.99
2022-07-26T16:01:01.247Z,22.92
2022-07-26T16:02:00.837Z,22.94
2022-07-26T16:03:00.835Z,23.01
2022-07-26T16:04:01.672Z,23.06
2022-07-26T16:05:00.896Z,23.09
2022-07-26T16:06:06.022Z,23.19
2022-07-26T16:07:00.956Z,23.29
2022-07-26T16:08:00.985Z,23.44
2022-07-26T16:09:17.340Z,23.47
2022-07-26T16:10:01.044Z,23.45
2022-07-26T16:11:01.081Z,23.47
2022-07-26T16:12:05.782Z,23.42
2022-07-26T16:13:01.139Z,23.42
2022-07-26T16:14:02.101Z,23.56
2022-07-26T16:15:01.202Z,23.52
2022-07-26T16:16:01.276Z,23.55
2022-07-26T16:17:01.322Z,23.56
2022-07-26T16:18:06.128Z,23.59
2022-07-26T16:19:01.324Z,23.56
2022-07-26T16:20:01.352Z,23.48
2022-07-26T16:21:01.386Z,23.35
2022-07-26T16:22:01.415Z,23.26
2022-07-26T16:23:01.446Z,23.24
2022-07-26T16:24:06.280Z,23.22
2022-07-26T16:25:01.508Z,23.21
2022-07-26T16:26:01.536Z,23.14